sensor_id;sensor_type;location;lat;lon;timestamp;pressure;altitude;pressure_sealevel;temperature;humidity
81970;BME280;71469;51.826;4.394;2024-03-17T11:21:28;101491.34;;;8.27;94.28
81970;BME280;71469;51.826;4.394;2024-03-17T11:24:01;102110.81;;;12.09;94.64
81970;BME280;71469;51.826;4.394;2024-03-17T11:26:31;101982.94;;;11.38;94.73
81970;BME280;71469;51.826;4.394;2024-03-17T11:28:57;102105.41;;;12.25;94.97
81970;BME280;71469;51.826;4.394;2024-03-17T11:31:33;102021.66;;;11.82;94.96
81970;BME280;71469;51.826;4.394;2024-03-17T11:34:00;101703.16;;;10.00;94.56
81970;BME280;71469;51.826;4.394;2024-03-17T11:39:00;102077.59;;;12.52;95.06
81970;BME280;71469;51.826;4.394;2024-03-17T11:41:40;102083.09;;;12.60;94.79
81970;BME280;71469;51.826;4.394;2024-03-17T11:46:56;102073.03;;;12.81;94.26
81970;BME280;71469;51.826;4.394;2024-03-17T11:49:33;102010.63;;;12.56;93.95
81970;BME280;71469;51.826;4.394;2024-03-17T11:52:01;102063.84;;;13.01;94.18
81970;BME280;71469;51.826;4.394;2024-03-17T11:54:33;101603.00;;;10.27;94.06
81970;BME280;71469;51.826;4.394;2024-03-17T11:57:02;102050.50;;;13.18;94.30
81970;BME280;71469;51.826;4.394;2024-03-17T11:59:29;102079.69;;;13.23;94.05
81970;BME280;71469;51.826;4.394;2024-03-17T12:01:55;101905.91;;;12.41;94.37
81970;BME280;71469;51.826;4.394;2024-03-17T12:04:21;101676.81;;;11.11;94.26
81970;BME280;71469;51.826;4.394;2024-03-17T12:06:48;101791.56;;;11.80;94.43
81970;BME280;71469;51.826;4.394;2024-03-17T12:09:27;102052.22;;;13.43;95.13
81970;BME280;71469;51.826;4.394;2024-03-17T12:12:06;102005.88;;;13.35;94.69
81970;BME280;71469;51.826;4.394;2024-03-17T12:14:33;101642.66;;;11.18;94.40
81970;BME280;71469;51.826;4.394;2024-03-17T12:19:29;101940.97;;;13.21;94.21
81970;BME280;71469;51.826;4.394;2024-03-17T12:21:56;101973.31;;;13.53;94.18
81970;BME280;71469;51.826;4.394;2024-03-17T12:24:27;101654.22;;;11.62;93.79
81970;BME280;71469;51.826;4.394;2024-03-17T12:26:54;102019.19;;;14.02;93.80
81970;BME280;71469;51.826;4.394;2024-03-17T12:29:32;101943.03;;;13.63;93.62
81970;BME280;71469;51.826;4.394;2024-03-17T12:32:04;101891.72;;;13.42;93.72
81970;BME280;71469;51.826;4.394;2024-03-17T12:34:33;101805.47;;;12.88;93.39
81970;BME280;71469;51.826;4.394;2024-03-17T12:37:02;101929.22;;;13.74;93.19
81970;BME280;71469;51.826;4.394;2024-03-17T12:39:29;102010.47;;;14.14;93.08
81970;BME280;71469;51.826;4.394;2024-03-17T12:42:08;102009.25;;;14.07;93.13
81970;BME280;71469;51.826;4.394;2024-03-17T13:40:51;101392.00;;;11.51;87.98
81970;BME280;71469;51.826;4.394;2024-03-17T13:43:16;101848.25;;;14.21;88.74
81970;BME280;71469;51.826;4.394;2024-03-17T13:45:42;101922.91;;;14.67;88.69
81970;BME280;71469;51.826;4.394;2024-03-17T13:48:12;101803.22;;;13.86;88.92
81970;BME280;71469;51.826;4.394;2024-03-17T13:50:38;101842.19;;;13.99;88.97
81970;BME280;71469;51.826;4.394;2024-03-17T13:53:05;101807.50;;;13.65;88.95
81970;BME280;71469;51.826;4.394;2024-03-17T13:55:32;101675.16;;;12.91;89.11
81970;BME280;71469;51.826;4.394;2024-03-17T13:57:58;101864.34;;;14.04;90.13
81970;BME280;71469;51.826;4.394;2024-03-17T14:00:33;101824.44;;;13.70;89.88
81970;BME280;71469;51.826;4.394;2024-03-17T14:03:08;101642.22;;;12.56;90.02
81970;BME280;71469;51.826;4.394;2024-03-17T14:05:34;101115.34;;;9.53;89.79
81970;BME280;71469;51.826;4.394;2024-03-17T14:08:01;101220.69;;;10.12;89.63
81970;BME280;71469;51.826;4.394;2024-03-17T14:10:34;101207.41;;;10.17;88.86
81970;BME280;71469;51.826;4.394;2024-03-17T14:13:02;101204.50;;;10.21;88.56
81970;BME280;71469;51.826;4.394;2024-03-17T14:15:28;101402.41;;;11.28;88.83
81970;BME280;71469;51.826;4.394;2024-03-17T14:17:54;101829.06;;;14.11;88.73
81970;BME280;71469;51.826;4.394;2024-03-17T14:20:19;101835.09;;;14.12;88.70
81970;BME280;71469;51.826;4.394;2024-03-17T14:22:46;101887.97;;;14.47;88.63
81970;BME280;71469;51.826;4.394;2024-03-17T14:25:29;101252.94;;;10.32;88.01
81970;BME280;71469;51.826;4.394;2024-03-17T14:27:55;101843.16;;;13.98;88.65
81970;BME280;71469;51.826;4.394;2024-03-17T14:30:20;101461.59;;;11.70;88.66
81970;BME280;71469;51.826;4.394;2024-03-17T14:32:47;101653.72;;;12.76;88.97
81970;BME280;71469;51.826;4.394;2024-03-17T14:35:17;101199.00;;;9.77;88.92
81970;BME280;71469;51.826;4.394;2024-03-17T14:37:44;101829.66;;;13.81;90.27
81970;BME280;71469;51.826;4.394;2024-03-17T14:40:26;101560.03;;;11.97;90.62
81970;BME280;71469;51.826;4.394;2024-03-17T14:42:55;101817.50;;;13.47;91.19
